Aviation Digital Data Service (ADDS)

Output produced by METARs form (0713 UTC 24 March 2019)
found at http://www.aviationweather.gov/metar/data/
 
EYKA 240650Z 28008KT 240V330 CAVOK 04/M00 Q1019 R08/19//95
TAF EYKA 240502Z 2406/2506 29012KT 9000 SCT020 
     BECMG 2416/2418 VRB02KT 
     BECMG 2420/2421 OVC010 
     TEMPO 2421/2506 BKN005
       
EYPA 240650Z 28005KT 220V350 CAVOK 05/02 Q1021 R01/0///95
TAF EYPA 240502Z 2406/2506 29010KT 9000 NSC 
     BECMG 2415/2417 BKN010 
     TEMPO 2420/2506 BKN005
       
EYSA 240650Z 29013KT 9999 FEW018 04/00 Q1018 R32R/09//95 BLU NOSIG
TAF EYSA 240502Z 2406/2415 27012KT 9000 SCT020
       
EYVI 240650Z 30010KT 260V330 9999 SCT017 04/M01 Q1018 R01/0///95 NOSIG
TAF EYVI 240502Z 2406/2506 30012KT 9000 SCT020 
     BECMG 2416/2418 VRB02KT 
     BECMG 2422/2424 OVC010 
     TEMPO 2500/2506 BKN005